Time;durP1;ratioP1;P1;durP2;ratioP2;P2;SDS_P1;SDS_P2;PMS_P1;PMS_P2;Temp;Humidity;BMP_temperature;BMP_pressure;BME280_temperature;BME280_humidity;BME280_pressure;Samples;Min_cycle;Max_cycle;Signal;HPM_P1;HPM_P2
2023/12/09 00:01:41;;;;;;;;;21.00;19.00;;;;;;;;5057493;28;11212;-84
2023/12/09 00:04:08;;;;;;;;;22.50;17.75;;;;;;;;5061306;28;11633;-85
2023/12/09 00:06:36;;;;;;;;;23.75;20.00;;;;;;;;5071400;28;11515;-85
2023/12/09 00:09:04;;;;;;;;;27.00;22.00;;;;;;;;5073673;28;11660;-84
2023/12/09 00:11:34;;;;;;;;;16.00;16.00;;;;;;;;5073342;28;11370;-84
2023/12/09 00:14:03;;;;;;;;;19.25;14.50;;;;;;;;5072184;28;11303;-85
2023/12/09 00:16:31;;;;;;;;;26.50;24.75;;;;;;;;5070300;28;11529;-84
2023/12/09 00:19:00;;;;;;;;;26.75;26.75;;;;;;;;5070833;28;11548;-84
2023/12/09 00:21:28;;;;;;;;;40.00;35.00;;;;;;;;5072429;28;11515;-83
2023/12/09 00:23:55;;;;;;;;;31.50;31.00;;;;;;;;5071830;28;11642;-85
2023/12/09 00:26:24;;;;;;;;;32.50;29.75;;;;;;;;5074477;28;11615;-85
2023/12/09 00:28:51;;;;;;;;;34.25;33.50;;;;;;;;5072350;28;11671;-85
2023/12/09 00:31:19;;;;;;;;;37.75;36.00;;;;;;;;5062467;28;11910;-84
2023/12/09 00:33:46;;;;;;;;;33.00;29.25;;;;;;;;5063567;28;11496;-83
2023/12/09 00:36:13;;;;;;;;;38.50;32.50;;;;;;;;5052685;28;11680;-83
2023/12/09 00:38:40;;;;;;;;;30.75;30.75;;;;;;;;5058328;28;11551;-83
2023/12/09 00:41:08;;;;;;;;;37.75;33.25;;;;;;;;5059296;28;11508;-86
2023/12/09 00:43:36;;;;;;;;;29.00;26.75;;;;;;;;5059799;28;11575;-82
2023/12/09 00:46:04;;;;;;;;;32.25;26.25;;;;;;;;5054789;28;11544;-83
2023/12/09 00:48:31;;;;;;;;;35.00;31.25;;;;;;;;5055840;28;11556;-82
2023/12/09 00:51:00;;;;;;;;;30.75;29.00;;;;;;;;5048571;28;11600;-81
2023/12/09 00:53:30;;;;;;;;;25.00;23.50;;;;;;;;5058222;28;11654;-82
2023/12/09 00:55:59;;;;;;;;;21.00;19.75;;;;;;;;5051290;28;11534;-82
2023/12/09 00:58:27;;;;;;;;;25.50;23.75;;;;;;;;5055000;28;11514;-83
2023/12/09 01:00:56;;;;;;;;;25.50;24.00;;;;;;;;5065851;28;11450;-84
2023/12/09 01:03:23;;;;;;;;;33.25;29.25;;;;;;;;5070123;28;12245;-83
2023/12/09 01:05:50;;;;;;;;;35.00;30.75;;;;;;;;5070897;28;11715;-83
2023/12/09 01:08:17;;;;;;;;;29.50;28.75;;;;;;;;5070502;28;11692;-83
2023/12/09 01:10:45;;;;;;;;;31.25;31.00;;;;;;;;5071072;28;11726;-83
2023/12/09 01:13:11;;;;;;;;;34.50;29.00;;;;;;;;5071030;28;12401;-84
2023/12/09 01:15:39;;;;;;;;;28.00;27.75;;;;;;;;5071879;28;11652;-85
2023/12/09 01:18:07;;;;;;;;;31.50;28.75;;;;;;;;5089270;28;11605;-83
2023/12/09 01:20:35;;;;;;;;;34.25;29.00;;;;;;;;5082068;28;11597;-85
2023/12/09 01:23:02;;;;;;;;;37.75;32.00;;;;;;;;5069005;28;11593;-84
2023/12/09 01:25:29;;;;;;;;;30.25;27.00;;;;;;;;5071713;28;11597;-84
2023/12/09 01:28:01;;;;;;;;;40.50;32.50;;;;;;;;5070007;28;11645;-84
2023/12/09 01:30:34;;;;;;;;;33.75;33.75;;;;;;;;5070960;28;11468;-85
2023/12/09 01:33:01;;;;;;;;;38.50;33.25;;;;;;;;5066085;28;11701;-84
2023/12/09 01:35:31;;;;;;;;;40.00;34.00;;;;;;;;5069071;28;11583;-85
2023/12/09 01:38:01;;;;;;;;;30.25;28.50;;;;;;;;5070895;28;11601;-84
2023/12/09 01:40:29;;;;;;;;;31.00;24.00;;;;;;;;5068532;28;11507;-83
2023/12/09 01:42:56;;;;;;;;;32.75;31.00;;;;;;;;5071386;28;11534;-84
2023/12/09 01:45:23;;;;;;;;;36.75;33.00;;;;;;;;5072201;28;11632;-83
2023/12/09 01:47:51;;;;;;;;;33.75;32.75;;;;;;;;5069660;28;11531;-84
2023/12/09 01:50:18;;;;;;;;;34.00;28.25;;;;;;;;5072017;28;11531;-82
2023/12/09 01:52:47;;;;;;;;;31.25;29.00;;;;;;;;5070766;28;11506;-83
2023/12/09 01:55:15;;;;;;;;;30.75;30.00;;;;;;;;5071870;28;11621;-83
2023/12/09 01:57:42;;;;;;;;;31.00;27.00;;;;;;;;5070042;28;11555;-83
2023/12/09 02:00:13;;;;;;;;;31.00;28.75;;;;;;;;5069646;28;11581;-83
2023/12/09 02:02:41;;;;;;;;;27.00;26.75;;;;;;;;5069862;28;11568;-84
2023/12/09 02:05:08;;;;;;;;;27.25;22.25;;;;;;;;5070162;28;11525;-81
2023/12/09 02:07:36;;;;;;;;;33.50;29.25;;;;;;;;5069196;28;12342;-85
2023/12/09 02:10:05;;;;;;;;;30.00;23.50;;;;;;;;5069894;28;11536;-83
2023/12/09 02:12:38;;;;;;;;;25.00;25.00;;;;;;;;5069798;28;11640;-83
2023/12/09 02:15:09;;;;;;;;;24.25;24.25;;;;;;;;5069755;28;11522;-83
2023/12/09 02:17:41;;;;;;;;;24.00;22.50;;;;;;;;5069436;28;11512;-83
2023/12/09 02:20:11;;;;;;;;;29.25;23.75;;;;;;;;5069060;28;11625;-84
2023/12/09 02:22:38;;;;;;;;;22.25;22.25;;;;;;;;5070923;28;11564;-82
2023/12/09 02:25:08;;;;;;;;;23.50;21.00;;;;;;;;5070922;28;11532;-84
2023/12/09 02:27:40;;;;;;;;;25.50;23.00;;;;;;;;5073272;28;11509;-84
2023/12/09 02:30:13;;;;;;;;;25.75;24.00;;;;;;;;5074014;28;11542;-83
2023/12/09 02:32:41;;;;;;;;;26.50;24.75;;;;;;;;5075081;28;11532;-82
2023/12/09 02:35:10;;;;;;;;;23.00;21.25;;;;;;;;5075332;28;11543;-83
2023/12/09 02:37:38;;;;;;;;;28.75;21.50;;;;;;;;5075727;28;11517;-83
2023/12/09 02:40:10;;;;;;;;;24.25;20.25;;;;;;;;5074017;28;11529;-84
2023/12/09 02:42:37;;;;;;;;;25.25;16.25;;;;;;;;5066628;28;11622;-83
2023/12/09 02:45:06;;;;;;;;;18.25;15.50;;;;;;;;5070296;28;11503;-83
2023/12/09 02:47:33;;;;;;;;;20.75;17.25;;;;;;;;5070726;28;11524;-83
2023/12/09 02:50:01;;;;;;;;;21.50;17.00;;;;;;;;5074029;28;11534;-84
2023/12/09 02:52:28;;;;;;;;;22.25;17.50;;;;;;;;5072250;28;11516;-84
2023/12/09 02:54:55;;;;;;;;;23.50;17.00;;;;;;;;5069713;28;11500;-84
2023/12/09 02:57:24;;;;;;;;;17.00;15.00;;;;;;;;5068793;28;11537;-84
2023/12/09 02:59:51;;;;;;;;;22.75;19.25;;;;;;;;5069238;28;11510;-84
2023/12/09 03:02:19;;;;;;;;;25.00;21.75;;;;;;;;5067881;28;11447;-84
2023/12/09 03:04:46;;;;;;;;;23.00;17.50;;;;;;;;5069509;28;11517;-84
2023/12/09 03:07:13;;;;;;;;;22.00;16.50;;;;;;;;5068929;28;11506;-84
2023/12/09 03:09:43;;;;;;;;;19.50;15.25;;;;;;;;5069245;28;11535;-83
2023/12/09 03:12:10;;;;;;;;;21.75;17.25;;;;;;;;5068772;28;11503;-84
2023/12/09 03:14:39;;;;;;;;;19.75;19.25;;;;;;;;5069093;28;11560;-84
2023/12/09 03:17:07;;;;;;;;;23.75;22.25;;;;;;;;5055607;28;11521;-84
2023/12/09 03:19:34;;;;;;;;;26.25;23.50;;;;;;;;5068155;28;11617;-84
2023/12/09 03:22:02;;;;;;;;;19.25;18.25;;;;;;;;5058233;28;11654;-84
2023/12/09 03:24:30;;;;;;;;;28.00;24.00;;;;;;;;5068962;28;11528;-84
2023/12/09 03:26:57;;;;;;;;;22.25;19.50;;;;;;;;5068968;28;11570;-84
2023/12/09 03:29:24;;;;;;;;;19.25;18.75;;;;;;;;5066921;28;11529;-84
2023/12/09 03:31:53;;;;;;;;;24.75;20.25;;;;;;;;5069201;28;11495;-83
2023/12/09 03:34:21;;;;;;;;;25.75;16.25;;;;;;;;5069464;28;12302;-84
2023/12/09 03:36:48;;;;;;;;;23.00;18.25;;;;;;;;5066474;28;12250;-83
2023/12/09 03:39:15;;;;;;;;;25.75;23.25;;;;;;;;5068916;28;11613;-83
2023/12/09 03:41:42;;;;;;;;;28.00;25.00;;;;;;;;5070057;28;11521;-84
2023/12/09 03:44:10;;;;;;;;;16.75;14.25;;;;;;;;5069938;28;11499;-84
2023/12/09 03:46:37;;;;;;;;;23.50;21.50;;;;;;;;5068982;28;11510;-84
2023/12/09 03:49:06;;;;;;;;;28.75;23.25;;;;;;;;5068683;28;12284;-83
2023/12/09 03:51:33;;;;;;;;;22.25;18.00;;;;;;;;5069452;28;11551;-85
2023/12/09 03:54:01;;;;;;;;;24.25;20.75;;;;;;;;5067751;28;11612;-84
2023/12/09 03:56:30;;;;;;;;;22.25;18.75;;;;;;;;5068949;28;11675;-84
2023/12/09 03:58:58;;;;;;;;;22.00;19.00;;;;;;;;5075454;28;11514;-83
2023/12/09 04:01:26;;;;;;;;;23.00;22.25;;;;;;;;5087345;28;11448;-83
2023/12/09 04:03:53;;;;;;;;;28.00;22.75;;;;;;;;5079735;28;11557;-83
2023/12/09 04:06:22;;;;;;;;;21.75;19.50;;;;;;;;5073115;28;11516;-83
2023/12/09 04:08:49;;;;;;;;;26.75;21.00;;;;;;;;5073289;28;11507;-83
2023/12/09 04:11:16;;;;;;;;;29.75;25.75;;;;;;;;5073281;28;11636;-84
2023/12/09 04:13:44;;;;;;;;;17.25;14.00;;;;;;;;5074777;28;11670;-84
2023/12/09 04:16:11;;;;;;;;;22.00;19.25;;;;;;;;5075593;28;11510;-84
2023/12/09 04:18:38;;;;;;;;;26.00;23.50;;;;;;;;5078273;28;11520;-84
2023/12/09 04:21:06;;;;;;;;;21.75;21.75;;;;;;;;5078550;28;11596;-84
2023/12/09 04:23:35;;;;;;;;;27.50;20.25;;;;;;;;5078592;28;11530;-83
2023/12/09 04:26:02;;;;;;;;;29.50;29.25;;;;;;;;5077906;28;11602;-83
2023/12/09 04:28:32;;;;;;;;;37.00;35.25;;;;;;;;5078766;28;11534;-83
2023/12/09 04:31:00;;;;;;;;;35.00;27.25;;;;;;;;5077541;28;11467;-84
2023/12/09 04:33:29;;;;;;;;;35.50;30.75;;;;;;;;5072726;28;11633;-83
2023/12/09 04:35:57;;;;;;;;;28.50;27.25;;;;;;;;5075120;28;11542;-83
2023/12/09 04:38:24;;;;;;;;;35.00;30.75;;;;;;;;5074900;28;11535;-83
2023/12/09 04:40:53;;;;;;;;;23.25;20.25;;;;;;;;5071126;28;11626;-84
2023/12/09 04:43:20;;;;;;;;;33.50;29.75;;;;;;;;5066744;28;12349;-84
2023/12/09 04:45:47;;;;;;;;;26.75;24.50;;;;;;;;5072087;28;11550;-81
2023/12/09 04:48:14;;;;;;;;;26.50;23.00;;;;;;;;5070862;28;12226;-85
2023/12/09 04:50:42;;;;;;;;;23.25;23.25;;;;;;;;5071198;28;12296;-84
2023/12/09 04:53:09;;;;;;;;;28.25;22.25;;;;;;;;5070469;28;11498;-84
2023/12/09 04:55:36;;;;;;;;;22.75;22.00;;;;;;;;5069214;28;11535;-84
2023/12/09 04:58:05;;;;;;;;;20.00;17.00;;;;;;;;5058230;28;12206;-83
2023/12/09 05:00:34;;;;;;;;;17.50;17.50;;;;;;;;5071007;28;11217;-85
2023/12/09 05:03:04;;;;;;;;;17.75;16.50;;;;;;;;5068490;28;11051;-84
2023/12/09 05:05:32;;;;;;;;;23.75;19.50;;;;;;;;5070652;28;10944;-84
2023/12/09 05:07:59;;;;;;;;;19.50;18.00;;;;;;;;5070418;28;11128;-84
2023/12/09 05:10:26;;;;;;;;;19.00;15.75;;;;;;;;5059744;28;11234;-84
2023/12/09 05:12:53;;;;;;;;;17.50;14.50;;;;;;;;5070438;28;11084;-83
2023/12/09 05:15:22;;;;;;;;;15.50;15.50;;;;;;;;5070728;28;11119;-83
2023/12/09 05:17:50;;;;;;;;;12.00;11.75;;;;;;;;5070557;28;10786;-82
2023/12/09 05:20:17;;;;;;;;;17.00;15.00;;;;;;;;5063775;28;11182;-83
2023/12/09 05:22:45;;;;;;;;;15.75;11.50;;;;;;;;5070254;28;11034;-82
2023/12/09 05:25:14;;;;;;;;;15.00;10.25;;;;;;;;5070692;28;11289;-83
2023/12/09 05:27:41;;;;;;;;;21.50;20.75;;;;;;;;5070712;28;10994;-83
2023/12/09 05:30:10;;;;;;;;;17.00;15.00;;;;;;;;5069917;28;11071;-84
2023/12/09 05:32:39;;;;;;;;;18.50;13.50;;;;;;;;5070121;28;10935;-84
2023/12/09 05:35:07;;;;;;;;;16.50;14.75;;;;;;;;5070542;28;11052;-83
2023/12/09 05:37:34;;;;;;;;;13.00;13.00;;;;;;;;5070038;28;10941;-83
2023/12/09 05:40:02;;;;;;;;;22.25;15.00;;;;;;;;5070953;28;10939;-85
2023/12/09 05:42:29;;;;;;;;;16.50;14.50;;;;;;;;5070371;28;10927;-83
2023/12/09 05:44:57;;;;;;;;;19.25;14.00;;;;;;;;5070152;28;10888;-81
2023/12/09 05:47:24;;;;;;;;;14.00;10.50;;;;;;;;5070250;28;10827;-82
2023/12/09 05:49:53;;;;;;;;;12.00;10.00;;;;;;;;5069730;28;10938;-83
2023/12/09 05:52:20;;;;;;;;;12.50;12.50;;;;;;;;5068976;28;11602;-84
2023/12/09 05:54:47;;;;;;;;;11.00;9.50;;;;;;;;5060066;28;10720;-83
2023/12/09 05:57:15;;;;;;;;;11.75;9.00;;;;;;;;5059631;28;10838;-83
2023/12/09 05:59:42;;;;;;;;;9.50;9.50;;;;;;;;5070642;28;10691;-84
2023/12/09 06:02:09;;;;;;;;;11.00;10.00;;;;;;;;5070176;28;10700;-85
2023/12/09 06:04:37;;;;;;;;;8.00;8.00;;;;;;;;5073266;28;10764;-84
2023/12/09 06:07:06;;;;;;;;;12.25;10.50;;;;;;;;5075257;28;10594;-82
2023/12/09 06:09:34;;;;;;;;;5.00;5.00;;;;;;;;5076609;28;10654;-86
2023/12/09 06:12:01;;;;;;;;;4.00;2.50;;;;;;;;5070843;28;10799;-84
2023/12/09 06:14:28;;;;;;;;;13.75;7.25;;;;;;;;5068827;28;10522;-83
2023/12/09 06:16:55;;;;;;;;;10.75;7.00;;;;;;;;5076225;28;10605;-81
2023/12/09 06:19:23;;;;;;;;;7.25;7.25;;;;;;;;5075324;28;10528;-81
2023/12/09 06:21:50;;;;;;;;;4.75;4.75;;;;;;;;5071822;28;10607;-80
2023/12/09 06:24:18;;;;;;;;;9.50;7.75;;;;;;;;5069850;28;10554;-81
2023/12/09 06:26:46;;;;;;;;;6.25;4.75;;;;;;;;5069994;28;10563;-80
2023/12/09 06:29:14;;;;;;;;;10.25;9.00;;;;;;;;5070566;28;10475;-80
2023/12/09 06:31:41;;;;;;;;;7.50;7.25;;;;;;;;5071683;28;10250;-80
2023/12/09 06:34:10;;;;;;;;;7.50;5.75;;;;;;;;5069510;28;10477;-80
2023/12/09 06:36:37;;;;;;;;;5.00;4.25;;;;;;;;5068157;28;10389;-79
2023/12/09 06:39:05;;;;;;;;;8.00;8.00;;;;;;;;5068993;28;10553;-73
2023/12/09 06:41:35;;;;;;;;;8.25;7.75;;;;;;;;5077729;28;10484;-75
2023/12/09 06:44:03;;;;;;;;;8.75;5.00;;;;;;;;5070142;28;10498;-71
2023/12/09 06:46:40;;;;;;;;;8.25;4.25;;;;;;;;5069563;28;10388;-71
2023/12/09 06:49:07;;;;;;;;;5.00;5.00;;;;;;;;5058935;28;10405;-76
2023/12/09 06:51:43;;;;;;;;;6.50;4.00;;;;;;;;5056515;28;10447;-72
2023/12/09 06:54:23;;;;;;;;;5.50;3.00;;;;;;;;5061503;28;10445;-72
2023/12/09 06:56:56;;;;;;;;;6.75;4.25;;;;;;;;5067395;28;10406;-84
2023/12/09 06:59:23;;;;;;;;;3.25;3.25;;;;;;;;5059550;28;10257;-79
2023/12/09 07:01:51;;;;;;;;;7.75;5.75;;;;;;;;5058345;28;10280;-75
2023/12/09 07:04:19;;;;;;;;;3.50;3.50;;;;;;;;5058818;28;10337;-80
2023/12/09 07:06:47;;;;;;;;;3.25;2.00;;;;;;;;5070127;28;10331;-75
2023/12/09 07:09:15;;;;;;;;;5.25;5.00;;;;;;;;5060305;28;10527;-89
2023/12/09 07:11:42;;;;;;;;;5.50;4.25;;;;;;;;5067461;28;10399;-79
2023/12/09 07:14:15;;;;;;;;;8.00;6.75;;;;;;;;5069073;28;10605;-77
2023/12/09 07:16:44;;;;;;;;;6.75;4.75;;;;;;;;5069461;28;10437;-77
2023/12/09 07:19:11;;;;;;;;;9.75;5.25;;;;;;;;5067691;28;10547;-80
2023/12/09 07:21:39;;;;;;;;;4.50;4.50;;;;;;;;5061297;28;10387;-83
2023/12/09 07:24:06;;;;;;;;;7.50;4.00;;;;;;;;5068489;28;10417;-79
2023/12/09 07:26:34;;;;;;;;;9.00;8.25;;;;;;;;5068500;28;10310;-83
2023/12/09 07:29:07;;;;;;;;;4.00;4.00;;;;;;;;5067745;28;11215;-85
2023/12/09 07:31:46;;;;;;;;;9.75;6.00;;;;;;;;5067533;28;10388;-82
2023/12/09 07:34:28;;;;;;;;;9.50;8.00;;;;;;;;5073930;28;10166;-83
2023/12/09 07:36:58;;;;;;;;;3.75;3.75;;;;;;;;5073404;28;10500;-88
2023/12/09 07:39:25;;;;;;;;;5.00;4.00;;;;;;;;5071880;28;10203;-85
2023/12/09 07:41:52;;;;;;;;;4.00;4.00;;;;;;;;5071776;28;10223;-81
2023/12/09 07:44:20;;;;;;;;;6.00;4.25;;;;;;;;5072077;28;10252;-86
2023/12/09 07:46:50;;;;;;;;;3.00;3.00;;;;;;;;5059757;28;10347;-81
2023/12/09 07:49:18;;;;;;;;;5.50;3.00;;;;;;;;5072785;28;10240;-82
2023/12/09 07:51:45;;;;;;;;;3.50;3.50;;;;;;;;5073440;28;11185;-84
2023/12/09 07:54:12;;;;;;;;;3.00;3.00;;;;;;;;5074753;28;10163;-80
2023/12/09 07:56:39;;;;;;;;;2.00;2.00;;;;;;;;5075922;28;10330;-84
2023/12/09 07:59:07;;;;;;;;;3.25;3.25;;;;;;;;5076898;28;10303;-81
2023/12/09 08:01:40;;;;;;;;;3.00;3.00;;;;;;;;5076837;28;10295;-78
2023/12/09 08:04:10;;;;;;;;;3.50;3.00;;;;;;;;5077641;28;10358;-85
2023/12/09 08:06:37;;;;;;;;;3.50;3.50;;;;;;;;5076542;28;10206;-80
2023/12/09 08:09:06;;;;;;;;;3.00;3.00;;;;;;;;5075256;28;10203;-80
2023/12/09 08:11:34;;;;;;;;;1.75;1.75;;;;;;;;5073801;28;10113;-79
2023/12/09 08:14:03;;;;;;;;;2.75;2.75;;;;;;;;5071755;28;10003;-75
2023/12/09 08:16:30;;;;;;;;;2.00;2.00;;;;;;;;5071603;28;10115;-74
2023/12/09 08:19:08;;;;;;;;;1.50;1.50;;;;;;;;5071672;28;10022;-77
2023/12/09 08:21:40;;;;;;;;;1.25;1.00;;;;;;;;5065232;28;10057;-81
2023/12/09 08:24:09;;;;;;;;;2.00;2.00;;;;;;;;5069622;28;10162;-80
2023/12/09 08:26:39;;;;;;;;;2.00;2.00;;;;;;;;5070646;28;10060;-76
2023/12/09 08:29:08;;;;;;;;;1.25;1.25;;;;;;;;5070470;28;10080;-75
2023/12/09 08:31:35;;;;;;;;;1.50;1.50;;;;;;;;5070534;28;9951;-78
2023/12/09 08:34:12;;;;;;;;;2.00;2.00;;;;;;;;5070527;28;10079;-82
2023/12/09 08:36:41;;;;;;;;;1.50;1.50;;;;;;;;5070147;28;10154;-77
2023/12/09 08:39:08;;;;;;;;;1.00;1.00;;;;;;;;5069602;28;10154;-73
2023/12/09 08:41:38;;;;;;;;;1.25;1.25;;;;;;;;5069823;28;10133;-75
2023/12/09 08:44:06;;;;;;;;;1.00;1.00;;;;;;;;5070263;28;10166;-81
2023/12/09 08:46:33;;;;;;;;;1.00;1.00;;;;;;;;5069958;28;9941;-72
2023/12/09 08:49:03;;;;;;;;;2.00;2.00;;;;;;;;5058296;28;9994;-76
2023/12/09 08:51:31;;;;;;;;;3.00;3.00;;;;;;;;5069973;28;10112;-78
2023/12/09 08:53:59;;;;;;;;;1.50;1.50;;;;;;;;5069610;28;10111;-74
2023/12/09 08:56:26;;;;;;;;;1.75;1.75;;;;;;;;5071301;28;9830;-92
2023/12/09 08:58:57;;;;;;;;;1.00;1.00;;;;;;;;5071892;28;10056;-78
2023/12/09 09:01:29;;;;;;;;;4.00;1.00;;;;;;;;5061741;28;9961;-73
2023/12/09 09:04:18;;;;;;;;;1.25;1.25;;;;;;;;5071921;28;10285;-75
2023/12/09 09:07:02;;;;;;;;;2.75;2.75;;;;;;;;5070459;28;9882;-81
2023/12/09 09:12:59;;;;;;;;;3.00;3.00;;;;;;;;5071431;28;9933;-72
2023/12/09 09:15:40;;;;;;;;;2.75;1.00;;;;;;;;5068511;28;10230;-73
2023/12/09 09:18:13;;;;;;;;;2.00;2.00;;;;;;;;5069296;28;10027;-74
2023/12/09 09:20:44;;;;;;;;;1.00;1.00;;;;;;;;5066020;28;10045;-74
2023/12/09 09:23:15;;;;;;;;;2.00;2.00;;;;;;;;5070623;28;9853;-73
2023/12/09 09:25:43;;;;;;;;;1.00;1.00;;;;;;;;5070767;28;9939;-73
2023/12/09 09:28:15;;;;;;;;;3.00;1.75;;;;;;;;5069850;28;9970;-72
2023/12/09 09:30:42;;;;;;;;;0.75;0.75;;;;;;;;5069510;28;9822;-76
2023/12/09 09:33:09;;;;;;;;;1.25;1.00;;;;;;;;5069331;28;9742;-76
2023/12/09 09:35:39;;;;;;;;;0.50;0.50;;;;;;;;5069720;28;10479;-76
2023/12/09 09:38:07;;;;;;;;;0.75;0.75;;;;;;;;5069386;28;9846;-76
2023/12/09 09:40:39;;;;;;;;;2.25;0.00;;;;;;;;5069823;28;9679;-77
2023/12/09 09:43:10;;;;;;;;;0.00;0.00;;;;;;;;5071495;28;9626;-75
2023/12/09 09:45:39;;;;;;;;;1.00;1.00;;;;;;;;5071404;28;9603;-77
2023/12/09 09:48:09;;;;;;;;;1.75;1.75;;;;;;;;5072233;28;9693;-77
2023/12/09 09:50:47;;;;;;;;;0.50;0.50;;;;;;;;5073433;28;9879;-75
2023/12/09 09:53:18;;;;;;;;;0.50;0.50;;;;;;;;5066425;28;9764;-74
2023/12/09 09:55:47;;;;;;;;;0.00;0.00;;;;;;;;5071970;28;9615;-75
2023/12/09 09:58:16;;;;;;;;;0.00;0.00;;;;;;;;5068223;28;9626;-74
2023/12/09 10:00:44;;;;;;;;;0.00;0.00;;;;;;;;5070242;28;9716;-73
2023/12/09 10:03:11;;;;;;;;;1.00;0.75;;;;;;;;5069042;28;9654;-72
2023/12/09 10:05:41;;;;;;;;;0.00;0.00;;;;;;;;5069325;28;9697;-72
2023/12/09 10:08:16;;;;;;;;;0.25;0.25;;;;;;;;5068977;28;9754;-73
2023/12/09 10:10:44;;;;;;;;;0.00;0.00;;;;;;;;5070025;28;9686;-72
2023/12/09 10:13:12;;;;;;;;;0.00;0.00;;;;;;;;5068370;28;9834;-74
2023/12/09 10:15:39;;;;;;;;;0.00;0.00;;;;;;;;5068856;28;9713;-73
2023/12/09 10:18:07;;;;;;;;;0.00;0.00;;;;;;;;5067900;28;9534;-72
2023/12/09 10:20:36;;;;;;;;;1.00;0.00;;;;;;;;5068442;28;9609;-74
2023/12/09 10:23:03;;;;;;;;;0.00;0.00;;;;;;;;5067173;28;9622;-74
2023/12/09 10:25:30;;;;;;;;;2.00;0.25;;;;;;;;5068446;28;9671;-72
2023/12/09 10:28:01;;;;;;;;;0.00;0.00;;;;;;;;5068213;28;9596;-72
2023/12/09 10:30:30;;;;;;;;;0.00;0.00;;;;;;;;5067896;28;9596;-74
2023/12/09 10:32:59;;;;;;;;;0.00;0.00;;;;;;;;5068279;28;9446;-77
2023/12/09 10:35:28;;;;;;;;;0.00;0.00;;;;;;;;5068023;28;9495;-73
2023/12/09 10:37:56;;;;;;;;;0.00;0.00;;;;;;;;5068696;28;9525;-77
2023/12/09 10:40:25;;;;;;;;;1.00;0.00;;;;;;;;5067858;28;9602;-76
2023/12/09 10:42:53;;;;;;;;;0.00;0.00;;;;;;;;5068432;28;9570;-77
2023/12/09 10:45:21;;;;;;;;;0.00;0.00;;;;;;;;5074460;28;9565;-76
2023/12/09 10:47:50;;;;;;;;;0.00;0.00;;;;;;;;5050498;28;9559;-78
2023/12/09 10:50:19;;;;;;;;;0.00;0.00;;;;;;;;5069429;28;9756;-78
2023/12/09 10:52:46;;;;;;;;;0.00;0.00;;;;;;;;5071703;28;9699;-74
2023/12/09 10:55:14;;;;;;;;;0.00;0.00;;;;;;;;5069813;28;9623;-80
2023/12/09 10:57:43;;;;;;;;;0.00;0.00;;;;;;;;5067898;28;9629;-75
2023/12/09 11:00:14;;;;;;;;;0.00;0.00;;;;;;;;5067107;28;9627;-75
2023/12/09 11:02:42;;;;;;;;;0.00;0.00;;;;;;;;5067533;28;9700;-73
2023/12/09 11:05:11;;;;;;;;;0.00;0.00;;;;;;;;5066457;28;9623;-76
2023/12/09 11:07:39;;;;;;;;;0.00;0.00;;;;;;;;5067320;28;9699;-73
2023/12/09 11:10:14;;;;;;;;;0.00;0.00;;;;;;;;5067520;28;10365;-75
2023/12/09 11:12:44;;;;;;;;;1.00;0.00;;;;;;;;5067817;28;9619;-79
2023/12/09 11:15:30;;;;;;;;;0.00;0.00;;;;;;;;5059834;28;9615;-74
2023/12/09 11:18:09;;;;;;;;;0.00;0.00;;;;;;;;5066740;28;9692;-75
2023/12/09 11:20:41;;;;;;;;;0.00;0.00;;;;;;;;5066862;28;9541;-78
2023/12/09 11:23:11;;;;;;;;;0.00;0.00;;;;;;;;5068235;28;9710;-77
2023/12/09 11:25:43;;;;;;;;;0.00;0.00;;;;;;;;5068817;28;9683;-76
2023/12/09 11:28:12;;;;;;;;;0.25;0.25;;;;;;;;5066482;28;9684;-73
2023/12/09 11:30:41;;;;;;;;;0.00;0.00;;;;;;;;5070458;28;9631;-78
2023/12/09 11:33:12;;;;;;;;;0.00;0.00;;;;;;;;5071042;28;9692;-81
2023/12/09 11:35:42;;;;;;;;;0.00;0.00;;;;;;;;5070248;28;9526;-74
2023/12/09 11:38:13;;;;;;;;;0.00;0.00;;;;;;;;5070981;28;9693;-82
2023/12/09 11:40:41;;;;;;;;;0.00;0.00;;;;;;;;5071319;28;9742;-72
2023/12/09 11:43:13;;;;;;;;;1.25;0.00;;;;;;;;5070923;28;9491;-72
2023/12/09 11:45:41;;;;;;;;;0.00;0.00;;;;;;;;5070693;28;9535;-73
2023/12/09 11:48:10;;;;;;;;;0.00;0.00;;;;;;;;5068480;28;9538;-74
2023/12/09 11:50:42;;;;;;;;;0.00;0.00;;;;;;;;5067924;28;9559;-72
2023/12/09 11:53:12;;;;;;;;;0.00;0.00;;;;;;;;5068399;28;9404;-71
2023/12/09 11:55:43;;;;;;;;;0.00;0.00;;;;;;;;5058980;28;9666;-71
2023/12/09 11:58:11;;;;;;;;;0.00;0.00;;;;;;;;5067263;28;9580;-73
2023/12/09 12:00:38;;;;;;;;;0.00;0.00;;;;;;;;5067084;28;10128;-75
2023/12/09 12:03:09;;;;;;;;;0.00;0.00;;;;;;;;5066394;28;9546;-73
2023/12/09 12:05:37;;;;;;;;;0.00;0.00;;;;;;;;5067349;28;9392;-75
2023/12/09 12:08:07;;;;;;;;;0.00;0.00;;;;;;;;5066969;28;10085;-74
2023/12/09 12:10:34;;;;;;;;;2.00;0.33;;;;;;;;5067232;28;10241;-70
2023/12/09 12:13:02;;;;;;;;;0.33;0.33;;;;;;;;5066531;28;9364;-74
2023/12/09 12:15:29;;;;;;;;;0.00;0.00;;;;;;;;5067156;28;9270;-77
2023/12/09 12:17:56;;;;;;;;;1.00;1.00;;;;;;;;5067105;28;9328;-87
2023/12/09 12:20:24;;;;;;;;;0.67;0.67;;;;;;;;5067645;28;9326;-81
2023/12/09 12:22:51;;;;;;;;;3.00;3.00;;;;;;;;5070274;28;10197;-83
2023/12/09 12:25:20;;;;;;;;;0.33;0.33;;;;;;;;5071721;28;10336;-73
2023/12/09 12:27:50;;;;;;;;;0.00;0.00;;;;;;;;5070286;28;9308;-80
2023/12/09 12:30:18;;;;;;;;;1.00;1.00;;;;;;;;5071832;28;9409;-90
2023/12/09 12:32:54;;;;;;;;;3.33;1.33;;;;;;;;5071840;28;9251;-82
2023/12/09 12:35:22;;;;;;;;;1.00;1.00;;;;;;;;5070669;28;9335;-85
2023/12/09 12:37:52;;;;;;;;;0.67;0.67;;;;;;;;5070829;28;9372;-78
2023/12/09 12:40:21;;;;;;;;;0.00;0.00;;;;;;;;5070590;28;10116;-83
2023/12/09 12:42:50;;;;;;;;;0.33;0.33;;;;;;;;5070639;28;9037;-86
2023/12/09 12:45:18;;;;;;;;;0.00;0.00;;;;;;;;5070450;28;9171;-84
2023/12/09 12:47:46;;;;;;;;;0.33;0.33;;;;;;;;5071179;28;9090;-83
2023/12/09 12:50:14;;;;;;;;;0.00;0.00;;;;;;;;5070395;28;9298;-86
2023/12/09 12:52:42;;;;;;;;;0.00;0.00;;;;;;;;5071430;28;10013;-81
2023/12/09 12:55:13;;;;;;;;;1.33;1.33;;;;;;;;5070160;28;9422;-86
2023/12/09 12:57:46;;;;;;;;;4.25;3.00;;;;;;;;5071134;28;9472;-85
2023/12/09 13:00:17;;;;;;;;;4.00;4.00;;;;;;;;5069625;28;9539;-77
2023/12/09 13:02:44;;;;;;;;;4.25;4.25;;;;;;;;5070926;28;9537;-84
2023/12/09 13:05:12;;;;;;;;;4.75;4.75;;;;;;;;5070716;28;9459;-76
2023/12/09 13:07:43;;;;;;;;;6.00;4.00;;;;;;;;5070945;28;9511;-83
2023/12/09 13:10:13;;;;;;;;;4.75;4.75;;;;;;;;5071045;28;9464;-82
2023/12/09 13:12:42;;;;;;;;;3.00;3.00;;;;;;;;5070978;28;9465;-86
2023/12/09 13:15:13;;;;;;;;;1.67;1.67;;;;;;;;5072331;28;9390;-79
2023/12/09 13:17:42;;;;;;;;;3.00;1.67;;;;;;;;5072746;28;9074;-84
2023/12/09 13:20:14;;;;;;;;;1.33;1.00;;;;;;;;5074400;28;9181;-82
2023/12/09 13:22:45;;;;;;;;;0.00;0.00;;;;;;;;5072916;28;9012;-80
2023/12/09 13:25:13;;;;;;;;;0.25;0.25;;;;;;;;5075211;28;8996;-76
2023/12/09 13:27:43;;;;;;;;;0.00;0.00;;;;;;;;5075818;28;8842;-74
2023/12/09 13:30:14;;;;;;;;;0.75;0.00;;;;;;;;5074464;28;9026;-80
2023/12/09 13:32:44;;;;;;;;;0.00;0.00;;;;;;;;5070174;28;8861;-79
2023/12/09 13:35:13;;;;;;;;;0.00;0.00;;;;;;;;5069767;28;8849;-79
2023/12/09 13:37:40;;;;;;;;;0.00;0.00;;;;;;;;5070569;28;8930;-81
2023/12/09 13:40:11;;;;;;;;;1.00;1.00;;;;;;;;5071472;28;8886;-81
2023/12/09 13:42:38;;;;;;;;;1.00;1.00;;;;;;;;5072016;28;8916;-79
2023/12/09 13:45:16;;;;;;;;;0.75;0.75;;;;;;;;5071263;28;8850;-81
2023/12/09 13:47:46;;;;;;;;;0.25;0.25;;;;;;;;5070262;28;8855;-80
2023/12/09 13:50:14;;;;;;;;;0.00;0.00;;;;;;;;5068284;28;8835;-80
2023/12/09 13:52:43;;;;;;;;;0.00;0.00;;;;;;;;5069016;28;8847;-81
2023/12/09 13:55:14;;;;;;;;;1.00;1.00;;;;;;;;5065917;28;8855;-80
2023/12/09 13:57:44;;;;;;;;;0.00;0.00;;;;;;;;5068752;28;8867;-81
2023/12/09 14:00:16;;;;;;;;;0.00;0.00;;;;;;;;5067945;28;8855;-81
2023/12/09 14:02:46;;;;;;;;;0.50;0.50;;;;;;;;5068575;28;8867;-81
2023/12/09 14:05:14;;;;;;;;;3.00;1.25;;;;;;;;5068430;28;8963;-81
2023/12/09 14:07:41;;;;;;;;;1.00;1.00;;;;;;;;5069005;28;8831;-80
2023/12/09 14:10:12;;;;;;;;;0.00;0.00;;;;;;;;5068476;28;8831;-80
2023/12/09 14:12:43;;;;;;;;;0.00;0.00;;;;;;;;5068851;28;8842;-83
2023/12/09 14:15:16;;;;;;;;;0.00;0.00;;;;;;;;5060110;28;8847;-80
2023/12/09 14:17:46;;;;;;;;;0.00;0.00;;;;;;;;5068208;28;8871;-81
2023/12/09 14:20:15;;;;;;;;;0.50;0.50;;;;;;;;5067595;28;8916;-79
2023/12/09 14:22:44;;;;;;;;;1.00;1.00;;;;;;;;5068565;28;8839;-80
2023/12/09 14:25:11;;;;;;;;;1.00;1.00;;;;;;;;5068936;28;9728;-81
2023/12/09 14:27:39;;;;;;;;;1.00;1.00;;;;;;;;5070351;28;9004;-81
2023/12/09 14:30:10;;;;;;;;;1.00;1.00;;;;;;;;5070047;28;8955;-80
2023/12/09 14:32:43;;;;;;;;;2.75;2.75;;;;;;;;5067481;28;8958;-81
2023/12/09 14:35:13;;;;;;;;;0.25;0.25;;;;;;;;5068422;28;8866;-80
2023/12/09 14:37:50;;;;;;;;;1.25;1.25;;;;;;;;5067144;28;8843;-81
2023/12/09 14:40:18;;;;;;;;;2.75;2.75;;;;;;;;5067911;28;8877;-79
2023/12/09 14:42:45;;;;;;;;;3.00;1.00;;;;;;;;5067832;28;8927;-80
2023/12/09 14:45:13;;;;;;;;;0.25;0.25;;;;;;;;5067895;28;8846;-80
2023/12/09 14:47:44;;;;;;;;;0.00;0.00;;;;;;;;5068686;28;8850;-80
2023/12/09 14:50:12;;;;;;;;;0.00;0.00;;;;;;;;5068362;28;8835;-80